createdAt,value
2023-07-09T00:01:19.271Z,22.20
2023-07-09T00:03:52.945Z,22.20
2023-07-09T00:06:22.317Z,22.20
2023-07-09T00:08:50.459Z,22.20
2023-07-09T00:11:17.748Z,22.20
2023-07-09T00:13:44.827Z,22.20
2023-07-09T00:16:22.563Z,22.20
2023-07-09T00:18:50.171Z,22.10
2023-07-09T00:21:18.977Z,22.10
2023-07-09T00:23:45.872Z,22.10
2023-07-09T00:26:14.790Z,22.10
2023-07-09T00:28:42.378Z,22.10
2023-07-09T00:31:14.577Z,22.10
2023-07-09T00:33:41.829Z,22.10
2023-07-09T00:36:27.698Z,22.00
2023-07-09T00:38:54.468Z,22.00
2023-07-09T00:41:24.070Z,22.00
2023-07-09T00:43:52.597Z,22.00
2023-07-09T00:46:24.749Z,22.00
2023-07-09T00:48:58.992Z,21.90
2023-07-09T00:51:28.296Z,22.00
2023-07-09T00:53:59.956Z,21.90
2023-07-09T00:56:39.317Z,21.90
2023-07-09T00:59:09.427Z,21.80
2023-07-09T01:01:36.426Z,21.80
2023-07-09T01:04:05.617Z,21.70
2023-07-09T01:06:36.335Z,21.70
2023-07-09T01:09:05.791Z,21.70
2023-07-09T01:11:32.608Z,21.70
2023-07-09T01:14:05.188Z,21.60
2023-07-09T01:16:38.408Z,21.60
2023-07-09T01:19:06.324Z,21.60
2023-07-09T01:21:33.381Z,21.50
2023-07-09T01:24:12.027Z,21.60
2023-07-09T01:26:39.670Z,21.50
2023-07-09T01:29:07.340Z,21.50
2023-07-09T01:31:34.949Z,21.50
2023-07-09T01:34:01.774Z,21.40
2023-07-09T01:36:29.538Z,21.40
2023-07-09T01:38:57.905Z,21.40
2023-07-09T01:41:24.877Z,21.40
2023-07-09T01:43:51.612Z,21.30
2023-07-09T01:46:18.451Z,21.30
2023-07-09T01:48:45.915Z,21.30
2023-07-09T01:51:17.444Z,21.20
2023-07-09T01:53:45.549Z,21.20
2023-07-09T01:56:12.769Z,21.20
2023-07-09T01:58:42.653Z,21.20
2023-07-09T02:01:11.004Z,21.20
2023-07-09T02:03:37.850Z,21.20
2023-07-09T02:06:10.633Z,21.10
2023-07-09T02:08:37.953Z,21.10
2023-07-09T02:11:04.668Z,21.00
2023-07-09T02:13:31.526Z,21.00
2023-07-09T02:15:58.239Z,21.00
2023-07-09T02:18:25.127Z,20.90
2023-07-09T02:20:51.838Z,20.80
2023-07-09T02:23:18.542Z,20.80
2023-07-09T02:25:45.319Z,20.70
2023-07-09T02:28:12.071Z,20.70
2023-07-09T02:30:38.901Z,20.70
2023-07-09T02:33:05.832Z,20.70
2023-07-09T02:35:32.611Z,20.60
2023-07-09T02:37:59.342Z,20.50
2023-07-09T02:40:26.036Z,20.50
2023-07-09T02:42:52.785Z,20.40
2023-07-09T02:45:19.772Z,20.40
2023-07-09T02:47:47.297Z,20.30
2023-07-09T02:50:14.320Z,20.30
2023-07-09T02:52:43.252Z,20.30
2023-07-09T02:55:10.091Z,20.20
2023-07-09T02:57:36.840Z,20.20
2023-07-09T03:00:06.295Z,20.10
2023-07-09T03:02:33.535Z,20.10
2023-07-09T03:05:00.365Z,20.10
2023-07-09T03:07:27.177Z,20.10
2023-07-09T03:09:54.077Z,20.10
2023-07-09T03:12:20.814Z,20.10
2023-07-09T03:14:50.624Z,20.10
2023-07-09T03:17:17.455Z,20.00
2023-07-09T03:19:44.405Z,20.00
2023-07-09T03:22:11.311Z,20.00
2023-07-09T03:24:38.030Z,19.90
2023-07-09T03:27:05.335Z,19.90
2023-07-09T03:29:32.054Z,19.80
2023-07-09T03:31:58.820Z,19.90
2023-07-09T03:34:25.822Z,19.80
2023-07-09T03:36:52.657Z,19.80
2023-07-09T03:39:19.611Z,19.90
2023-07-09T03:41:46.436Z,19.90
2023-07-09T03:44:14.055Z,19.90
2023-07-09T03:46:40.796Z,19.90
2023-07-09T03:49:07.735Z,19.90
2023-07-09T03:51:34.644Z,19.90
2023-07-09T03:54:01.389Z,19.90
2023-07-09T03:56:28.130Z,19.90
2023-07-09T03:58:54.906Z,19.80
2023-07-09T04:01:21.739Z,19.80
2023-07-09T04:03:48.688Z,19.90
2023-07-09T04:06:15.497Z,19.90
2023-07-09T04:08:42.216Z,19.90
2023-07-09T04:11:09.061Z,19.80
2023-07-09T04:13:35.835Z,19.80
2023-07-09T04:16:02.957Z,19.90
2023-07-09T04:18:30.474Z,19.90
2023-07-09T04:20:57.204Z,19.90
2023-07-09T04:23:24.148Z,20.00
2023-07-09T04:25:50.994Z,20.00
2023-07-09T04:28:18.278Z,20.10
2023-07-09T04:30:49.066Z,20.10
2023-07-09T04:33:18.484Z,20.10
2023-07-09T04:35:47.184Z,20.10
2023-07-09T04:38:14.706Z,20.20
2023-07-09T04:40:42.104Z,20.30
2023-07-09T04:43:09.103Z,20.30
2023-07-09T04:45:36.001Z,20.30
2023-07-09T04:48:03.099Z,20.40
2023-07-09T04:50:29.843Z,20.50
2023-07-09T04:52:56.669Z,20.50
2023-07-09T04:55:23.402Z,20.60
2023-07-09T04:57:50.539Z,20.70
2023-07-09T05:00:17.840Z,20.80
2023-07-09T05:02:44.730Z,20.80
2023-07-09T05:05:13.028Z,20.90
2023-07-09T05:07:40.981Z,21.00
2023-07-09T05:10:08.509Z,21.00
2023-07-09T05:12:35.249Z,21.00
2023-07-09T05:15:02.061Z,21.10
2023-07-09T05:17:28.912Z,21.20
2023-07-09T05:19:55.651Z,21.20
2023-07-09T05:22:22.420Z,21.30
2023-07-09T05:24:49.181Z,21.40
2023-07-09T05:27:15.887Z,21.50
2023-07-09T05:29:42.626Z,21.60
2023-07-09T05:32:09.392Z,21.80
2023-07-09T05:34:36.105Z,21.80
2023-07-09T05:37:02.861Z,21.90
2023-07-09T05:39:29.630Z,22.10
2023-07-09T05:41:56.344Z,22.20
2023-07-09T05:44:23.228Z,22.20
2023-07-09T05:46:50.145Z,22.30
2023-07-09T05:49:16.895Z,22.50
2023-07-09T05:51:43.602Z,22.60
2023-07-09T05:54:10.651Z,22.70
2023-07-09T05:56:37.342Z,22.70
2023-07-09T05:59:04.142Z,22.80
2023-07-09T06:01:30.909Z,22.90
2023-07-09T06:03:57.973Z,23.00
2023-07-09T06:06:24.938Z,23.10
2023-07-09T06:08:51.674Z,23.30
2023-07-09T06:11:19.170Z,23.40
2023-07-09T06:13:49.256Z,23.50
2023-07-09T06:16:17.182Z,23.60
2023-07-09T06:18:44.201Z,23.80
2023-07-09T06:21:12.628Z,23.90
2023-07-09T06:23:39.566Z,24.00
2023-07-09T06:26:06.681Z,24.10
2023-07-09T06:28:34.245Z,24.20
2023-07-09T06:31:01.217Z,24.40
2023-07-09T06:33:28.963Z,24.50
2023-07-09T06:35:59.060Z,24.70
2023-07-09T06:38:26.591Z,24.80
2023-07-09T06:40:53.997Z,24.90
2023-07-09T06:43:21.498Z,25.00
2023-07-09T06:45:58.210Z,25.10
2023-07-09T06:48:26.983Z,25.20
2023-07-09T06:50:55.449Z,25.30
2023-07-09T06:53:23.168Z,25.30
2023-07-09T06:55:50.204Z,25.40
2023-07-09T06:58:18.392Z,25.60
2023-07-09T07:00:45.936Z,25.70
2023-07-09T07:03:13.340Z,25.90
2023-07-09T07:05:48.688Z,26.10
2023-07-09T07:08:17.028Z,26.20
2023-07-09T07:10:44.130Z,26.40
2023-07-09T07:13:11.586Z,26.60
2023-07-09T07:15:39.153Z,26.70
2023-07-09T07:18:07.285Z,26.90
2023-07-09T07:20:34.892Z,27.00
2023-07-09T07:23:01.742Z,27.10
2023-07-09T07:25:28.501Z,27.10
2023-07-09T07:27:55.442Z,27.30
2023-07-09T07:30:23.952Z,27.40
2023-07-09T07:32:52.697Z,27.60
2023-07-09T07:35:20.485Z,27.60
2023-07-09T07:37:47.415Z,27.80
2023-07-09T07:40:14.313Z,28.00
2023-07-09T07:42:41.083Z,28.00
2023-07-09T07:45:08.971Z,28.10
2023-07-09T07:47:38.190Z,28.20
2023-07-09T07:50:06.207Z,28.40
2023-07-09T07:52:33.289Z,28.50
2023-07-09T07:55:00.011Z,28.60
2023-07-09T07:57:27.321Z,28.70
2023-07-09T07:59:54.200Z,28.90
2023-07-09T08:02:21.093Z,29.00
2023-07-09T08:04:47.891Z,29.20
2023-07-09T08:07:14.788Z,29.30
2023-07-09T08:09:41.582Z,29.40
2023-07-09T08:12:16.068Z,29.50
2023-07-09T08:14:45.868Z,29.80
2023-07-09T08:17:12.811Z,30.20
2023-07-09T08:19:48.428Z,30.30
2023-07-09T08:22:16.113Z,30.30
2023-07-09T08:24:43.704Z,30.20
2023-07-09T08:27:10.941Z,30.20
2023-07-09T08:29:37.787Z,30.30
2023-07-09T08:32:05.465Z,30.50
2023-07-09T08:34:32.269Z,30.60
2023-07-09T08:36:59.191Z,30.60
2023-07-09T08:39:26.103Z,30.70
2023-07-09T08:42:03.635Z,30.80
2023-07-09T08:44:55.246Z,30.80
2023-07-09T08:47:27.593Z,30.90
2023-07-09T08:50:24.842Z,31.00
2023-07-09T08:52:53.939Z,31.20
2023-07-09T08:55:28.001Z,31.20
2023-07-09T08:58:00.866Z,31.20
2023-07-09T09:00:46.144Z,31.30
2023-07-09T09:03:22.646Z,31.50
2023-07-09T09:05:50.619Z,31.50
2023-07-09T09:08:35.925Z,31.60
2023-07-09T09:11:34.527Z,31.60
2023-07-09T09:14:07.030Z,31.80
2023-07-09T09:16:38.771Z,31.80
2023-07-09T09:19:23.956Z,31.90
2023-07-09T09:21:58.902Z,31.90
2023-07-09T09:24:36.568Z,32.00
2023-07-09T09:27:03.571Z,32.20
2023-07-09T09:29:32.660Z,32.20
2023-07-09T09:32:16.452Z,32.40
2023-07-09T09:34:43.168Z,32.40
2023-07-09T09:37:13.222Z,32.50
2023-07-09T09:39:40.245Z,32.60
2023-07-09T09:42:12.706Z,32.60
2023-07-09T09:44:45.346Z,32.70
2023-07-09T09:47:14.089Z,32.70
2023-07-09T09:49:41.967Z,32.90
2023-07-09T09:52:17.019Z,33.00
2023-07-09T09:55:02.284Z,32.90
2023-07-09T09:57:29.396Z,33.00
2023-07-09T09:59:56.373Z,33.00
2023-07-09T10:02:25.864Z,33.00
2023-07-09T10:04:53.060Z,33.10
2023-07-09T10:07:34.661Z,33.10
2023-07-09T10:10:03.127Z,33.20
2023-07-09T10:12:46.882Z,33.20
2023-07-09T10:15:42.691Z,33.30
2023-07-09T10:18:21.222Z,33.40
2023-07-09T10:21:16.658Z,33.50
2023-07-09T10:23:55.465Z,33.50
2023-07-09T10:26:37.836Z,33.50
2023-07-09T10:29:11.159Z,33.50
2023-07-09T10:32:11.334Z,33.50
2023-07-09T10:35:16.275Z,33.50
2023-07-09T10:38:34.373Z,33.50
2023-07-09T10:41:20.425Z,33.70
2023-07-09T10:44:17.054Z,33.60
2023-07-09T10:46:50.254Z,33.70
2023-07-09T10:49:18.978Z,33.80
2023-07-09T10:51:53.638Z,33.80
2023-07-09T10:54:39.756Z,33.80
2023-07-09T10:57:19.997Z,33.80
2023-07-09T10:59:50.488Z,33.70
2023-07-09T11:02:20.491Z,33.70
2023-07-09T11:04:50.349Z,33.70
2023-07-09T11:07:23.078Z,33.80
2023-07-09T11:09:53.722Z,33.80
2023-07-09T11:12:35.545Z,33.70
2023-07-09T11:15:05.079Z,33.80
2023-07-09T11:17:34.378Z,33.90
2023-07-09T11:20:08.701Z,34.00
2023-07-09T11:22:41.070Z,34.00
2023-07-09T11:25:12.988Z,34.00
2023-07-09T11:27:57.418Z,34.00
2023-07-09T11:30:27.835Z,34.00
2023-07-09T11:33:24.657Z,34.00
2023-07-09T11:35:55.987Z,34.00
2023-07-09T11:38:25.853Z,34.10
2023-07-09T11:40:55.773Z,34.10
2023-07-09T11:43:30.061Z,34.00
2023-07-09T11:46:01.994Z,34.00
2023-07-09T11:48:34.331Z,34.10
2023-07-09T11:51:09.306Z,34.00
2023-07-09T11:53:44.974Z,34.00
2023-07-09T11:56:13.307Z,34.10
2023-07-09T11:58:51.532Z,34.10
2023-07-09T12:01:22.238Z,34.10
2023-07-09T12:03:50.139Z,34.10
2023-07-09T12:06:27.487Z,34.20
2023-07-09T12:08:55.199Z,34.20
2023-07-09T12:11:33.943Z,34.10
2023-07-09T12:14:12.877Z,34.20
2023-07-09T12:16:42.399Z,34.10
2023-07-09T12:19:24.258Z,34.20
2023-07-09T12:21:57.114Z,34.10
2023-07-09T12:24:36.821Z,34.10
2023-07-09T12:27:16.936Z,34.10
2023-07-09T12:29:43.633Z,34.00
2023-07-09T12:32:17.473Z,33.90
2023-07-09T12:34:51.568Z,33.90
2023-07-09T12:37:19.315Z,34.00
2023-07-09T12:39:46.192Z,33.90
2023-07-09T12:42:18.964Z,33.90
2023-07-09T12:44:48.143Z,33.90
2023-07-09T12:47:16.223Z,33.90
2023-07-09T12:49:45.659Z,33.90
2023-07-09T12:52:30.562Z,34.00
2023-07-09T12:54:59.179Z,33.90
2023-07-09T12:57:27.003Z,33.90
2023-07-09T12:59:55.922Z,33.90
2023-07-09T13:02:25.639Z,34.00
2023-07-09T13:05:07.116Z,34.00
2023-07-09T13:07:38.817Z,33.80
2023-07-09T13:10:19.381Z,33.70
2023-07-09T13:12:49.766Z,33.70
2023-07-09T13:15:26.978Z,33.70
2023-07-09T13:18:06.176Z,33.70
2023-07-09T13:20:35.980Z,33.70
2023-07-09T13:23:09.265Z,33.60
2023-07-09T13:25:46.965Z,33.70
2023-07-09T13:28:19.094Z,33.70
2023-07-09T13:30:46.303Z,33.70
2023-07-09T13:33:13.019Z,33.60
2023-07-09T13:35:39.839Z,33.60
2023-07-09T13:38:18.053Z,33.60
2023-07-09T13:40:49.245Z,33.70
2023-07-09T13:43:22.560Z,34.30
2023-07-09T13:45:50.523Z,38.10
2023-07-09T13:48:20.053Z,41.50
2023-07-09T13:50:50.085Z,43.90
2023-07-09T13:53:26.466Z,44.80
2023-07-09T13:55:54.650Z,46.30
2023-07-09T13:58:23.692Z,48.20
2023-07-09T14:00:55.330Z,49.20
2023-07-09T14:03:26.202Z,48.90
2023-07-09T14:05:53.471Z,48.30
2023-07-09T14:08:22.747Z,45.70
2023-07-09T14:10:50.674Z,44.00
2023-07-09T14:13:19.969Z,42.50
2023-07-09T14:15:46.826Z,40.80
2023-07-09T14:18:19.501Z,39.80
2023-07-09T14:20:46.802Z,38.80
2023-07-09T14:23:17.059Z,38.10
2023-07-09T14:25:45.010Z,37.60
2023-07-09T14:28:17.185Z,37.00
2023-07-09T14:30:46.369Z,36.40
2023-07-09T14:33:19.760Z,36.20
2023-07-09T14:35:47.738Z,35.90
2023-07-09T14:38:19.184Z,35.70
2023-07-09T14:40:47.415Z,35.50
2023-07-09T14:43:14.549Z,35.20
2023-07-09T14:45:41.630Z,35.20
2023-07-09T14:48:13.806Z,35.10
2023-07-09T14:50:42.570Z,35.00
2023-07-09T14:53:16.536Z,34.90
2023-07-09T14:55:45.788Z,34.80
2023-07-09T14:58:21.116Z,34.80
2023-07-09T15:00:49.280Z,34.70
2023-07-09T15:03:25.037Z,34.50
2023-07-09T15:05:52.811Z,34.50
2023-07-09T15:08:25.239Z,34.50
2023-07-09T15:10:53.978Z,34.40
2023-07-09T15:13:34.483Z,34.40
2023-07-09T15:16:03.461Z,34.30
2023-07-09T15:18:30.264Z,34.30
2023-07-09T15:20:59.918Z,34.30
2023-07-09T15:23:29.513Z,34.20
2023-07-09T15:25:56.506Z,34.20
2023-07-09T15:28:23.610Z,34.10
2023-07-09T15:30:50.391Z,34.10
2023-07-09T15:33:19.794Z,34.00
2023-07-09T15:35:53.431Z,34.00
2023-07-09T15:38:20.223Z,34.00
2023-07-09T15:40:49.307Z,34.00
2023-07-09T15:43:16.956Z,33.90
2023-07-09T15:45:47.031Z,33.90
2023-07-09T15:48:24.686Z,33.90
2023-07-09T15:50:51.805Z,33.70
2023-07-09T15:53:18.829Z,33.60
2023-07-09T15:55:45.558Z,33.70
2023-07-09T15:58:26.031Z,33.70
2023-07-09T16:00:53.330Z,33.80
2023-07-09T16:03:23.187Z,33.70
2023-07-09T16:05:50.582Z,33.70
2023-07-09T16:08:17.452Z,33.70
2023-07-09T16:10:44.618Z,33.70
2023-07-09T16:13:23.621Z,33.70
2023-07-09T16:15:51.280Z,33.70
2023-07-09T16:18:19.164Z,33.70
2023-07-09T16:20:47.482Z,33.60
2023-07-09T16:23:24.328Z,33.50
2023-07-09T16:25:51.932Z,33.40
2023-07-09T16:28:20.868Z,33.30
2023-07-09T16:30:51.307Z,33.30
2023-07-09T16:33:19.101Z,33.30
2023-07-09T16:35:46.016Z,33.20
2023-07-09T16:38:13.182Z,33.20
2023-07-09T16:40:40.835Z,33.10
2023-07-09T16:43:16.738Z,33.00
2023-07-09T16:45:43.855Z,33.10
2023-07-09T16:48:20.273Z,33.00
2023-07-09T16:50:47.572Z,32.90
2023-07-09T16:53:17.292Z,32.90
2023-07-09T16:55:44.484Z,32.80
2023-07-09T16:58:30.153Z,32.80
2023-07-09T17:00:56.998Z,32.70
2023-07-09T17:03:24.150Z,32.70
2023-07-09T17:05:51.090Z,32.70
2023-07-09T17:08:17.798Z,32.60
2023-07-09T17:10:45.176Z,32.50
2023-07-09T17:13:25.101Z,32.50
2023-07-09T17:15:52.563Z,32.50
2023-07-09T17:18:29.113Z,32.40
2023-07-09T17:20:57.459Z,32.40
2023-07-09T17:23:28.003Z,32.30
2023-07-09T17:25:55.438Z,32.30
2023-07-09T17:28:24.831Z,32.30
2023-07-09T17:30:52.382Z,32.20
2023-07-09T17:33:20.039Z,32.10
2023-07-09T17:35:49.898Z,32.10
2023-07-09T17:38:20.829Z,32.00
2023-07-09T17:40:47.729Z,31.90
2023-07-09T17:43:21.582Z,31.80
2023-07-09T17:45:49.409Z,31.70
2023-07-09T17:48:37.921Z,31.70
2023-07-09T17:51:05.172Z,31.70
2023-07-09T17:53:34.339Z,31.50
2023-07-09T17:56:02.524Z,31.50
2023-07-09T17:58:36.113Z,31.50
2023-07-09T18:01:07.209Z,31.40
2023-07-09T18:03:34.608Z,31.30
2023-07-09T18:06:01.814Z,31.30
2023-07-09T18:08:28.958Z,31.30
2023-07-09T18:10:56.017Z,31.20
2023-07-09T18:13:28.570Z,31.10
2023-07-09T18:15:56.317Z,31.10
2023-07-09T18:18:23.425Z,31.00
2023-07-09T18:20:50.298Z,30.90
2023-07-09T18:23:17.324Z,30.90
2023-07-09T18:25:46.378Z,30.80
2023-07-09T18:28:26.720Z,30.70
2023-07-09T18:31:03.333Z,30.70
2023-07-09T18:33:40.125Z,30.60
2023-07-09T18:36:07.004Z,30.50
2023-07-09T18:38:33.662Z,30.40
2023-07-09T18:41:00.536Z,30.30
2023-07-09T18:45:56.882Z,30.20
2023-07-09T18:48:28.825Z,30.10
2023-07-09T18:50:57.581Z,30.00
2023-07-09T18:53:26.033Z,30.00
2023-07-09T18:55:54.266Z,29.90
2023-07-09T18:58:24.639Z,29.80
2023-07-09T19:00:51.680Z,29.70
2023-07-09T19:03:22.905Z,29.70
2023-07-09T19:05:50.087Z,29.60
2023-07-09T19:08:26.126Z,29.60
2023-07-09T19:10:53.662Z,29.50
2023-07-09T19:13:22.236Z,29.50
2023-07-09T19:15:50.813Z,29.40
2023-07-09T19:18:24.918Z,29.40
2023-07-09T19:20:57.127Z,29.30
2023-07-09T19:23:24.714Z,29.30
2023-07-09T19:25:52.704Z,29.20
2023-07-09T19:28:21.799Z,29.10
2023-07-09T19:30:50.098Z,29.10
2023-07-09T19:33:22.640Z,29.00
2023-07-09T19:35:49.417Z,28.90
2023-07-09T19:38:16.224Z,28.90
2023-07-09T19:40:43.004Z,28.80
2023-07-09T19:43:13.142Z,28.80
2023-07-09T19:45:50.962Z,28.70
2023-07-09T19:48:28.651Z,28.70
2023-07-09T19:50:55.877Z,28.60
2023-07-09T19:53:28.314Z,28.60
2023-07-09T19:55:56.841Z,28.50
2023-07-09T19:58:24.084Z,28.50
2023-07-09T20:00:52.035Z,28.40
2023-07-09T20:03:24.394Z,28.40
2023-07-09T20:05:51.778Z,28.30
2023-07-09T20:08:20.240Z,28.30
2023-07-09T20:10:47.558Z,28.20
2023-07-09T20:13:36.109Z,28.20
2023-07-09T20:16:03.589Z,28.10
2023-07-09T20:18:31.006Z,28.00
2023-07-09T20:21:01.088Z,28.00
2023-07-09T20:23:31.946Z,27.90
2023-07-09T20:25:59.203Z,27.90
2023-07-09T20:28:29.161Z,27.80
2023-07-09T20:30:57.459Z,27.80
2023-07-09T20:33:25.003Z,27.70
2023-07-09T20:35:52.594Z,27.70
2023-07-09T20:38:20.646Z,27.60
2023-07-09T20:40:48.386Z,27.50
2023-07-09T20:43:25.035Z,27.50
2023-07-09T20:45:51.935Z,27.50
2023-07-09T20:48:20.067Z,27.50
2023-07-09T20:50:48.313Z,27.40
2023-07-09T20:53:17.335Z,27.30
2023-07-09T20:55:45.286Z,27.30
2023-07-09T20:58:17.802Z,27.20
2023-07-09T21:00:45.943Z,27.20
2023-07-09T21:03:19.305Z,27.10
2023-07-09T21:05:50.743Z,27.10
2023-07-09T21:08:20.650Z,27.00
2023-07-09T21:10:48.747Z,27.00
2023-07-09T21:13:18.955Z,26.90
2023-07-09T21:15:50.576Z,26.90
2023-07-09T21:18:19.541Z,26.80
2023-07-09T21:20:47.115Z,26.80
2023-07-09T21:23:22.900Z,26.80
2023-07-09T21:25:49.871Z,26.70
2023-07-09T21:28:16.976Z,26.70
2023-07-09T21:30:44.574Z,26.70
2023-07-09T21:33:19.602Z,26.70
2023-07-09T21:35:47.528Z,26.60
2023-07-09T21:38:20.838Z,26.50
2023-07-09T21:40:48.661Z,26.50
2023-07-09T21:43:15.541Z,26.50
2023-07-09T21:45:43.744Z,26.50
2023-07-09T21:48:16.912Z,26.40
2023-07-09T21:50:43.937Z,26.40
2023-07-09T21:53:23.500Z,26.40
2023-07-09T21:55:57.760Z,26.30
2023-07-09T21:58:24.509Z,26.30
2023-07-09T22:00:56.526Z,26.30
2023-07-09T22:03:24.485Z,26.30
2023-07-09T22:05:51.366Z,26.30
2023-07-09T22:08:21.292Z,26.30
2023-07-09T22:10:48.980Z,26.30
2023-07-09T22:13:17.539Z,26.20
2023-07-09T22:15:44.783Z,26.20
2023-07-09T22:18:17.287Z,26.20
2023-07-09T22:20:44.731Z,26.20
2023-07-09T22:23:21.652Z,26.20
2023-07-09T22:25:50.580Z,26.20
2023-07-09T22:28:18.646Z,26.10
2023-07-09T22:30:45.897Z,26.10
2023-07-09T22:33:13.358Z,26.10
2023-07-09T22:35:40.411Z,26.00
2023-07-09T22:38:25.666Z,26.00
2023-07-09T22:40:52.684Z,26.00
2023-07-09T22:43:20.187Z,26.00
2023-07-09T22:45:51.101Z,26.00
2023-07-09T22:48:20.122Z,25.90
2023-07-09T22:50:47.276Z,25.90
2023-07-09T22:53:17.086Z,25.80
2023-07-09T22:55:46.189Z,25.80
2023-07-09T22:58:14.822Z,25.70
2023-07-09T23:00:46.159Z,25.60
2023-07-09T23:03:19.537Z,25.60
2023-07-09T23:05:47.647Z,25.60
2023-07-09T23:08:22.546Z,25.50
2023-07-09T23:10:51.118Z,25.50
2023-07-09T23:13:18.203Z,25.40
2023-07-09T23:15:45.048Z,25.40
2023-07-09T23:18:18.711Z,25.30
2023-07-09T23:20:45.789Z,25.30
2023-07-09T23:23:12.602Z,25.30
2023-07-09T23:25:40.353Z,25.20
2023-07-09T23:28:07.764Z,25.20
2023-07-09T23:30:37.047Z,25.20
2023-07-09T23:33:28.942Z,25.10
2023-07-09T23:35:57.625Z,25.00
2023-07-09T23:38:30.578Z,25.00
2023-07-09T23:40:59.204Z,24.90
2023-07-09T23:43:38.222Z,24.80
2023-07-09T23:46:05.297Z,24.80
2023-07-09T23:48:32.390Z,24.80
2023-07-09T23:51:03.291Z,24.80
2023-07-09T23:53:32.746Z,24.80
2023-07-09T23:56:21.820Z,24.80
2023-07-09T23:58:49.385Z,24.70
